sensor_id;sensor_type;location;lat;lon;timestamp;P1;durP1;ratioP1;P2;durP2;ratioP2
21769;SDS011;11046;49.558;8.674;2024-02-21T00:02:37;16.87;;;5.47;;
21769;SDS011;11046;49.558;8.674;2024-02-21T00:05:37;18.77;;;6.10;;
21769;SDS011;11046;49.558;8.674;2024-02-21T00:08:38;17.53;;;5.93;;
21769;SDS011;11046;49.558;8.674;2024-02-21T00:11:39;14.33;;;5.57;;
21769;SDS011;11046;49.558;8.674;2024-02-21T00:14:39;15.00;;;5.67;;
21769;SDS011;11046;49.558;8.674;2024-02-21T00:17:40;17.00;;;5.50;;
21769;SDS011;11046;49.558;8.674;2024-02-21T00:20:41;21.40;;;6.17;;
21769;SDS011;11046;49.558;8.674;2024-02-21T00:23:41;24.43;;;6.50;;
21769;SDS011;11046;49.558;8.674;2024-02-21T00:26:42;24.60;;;5.63;;
21769;SDS011;11046;49.558;8.674;2024-02-21T00:29:43;17.47;;;6.13;;
21769;SDS011;11046;49.558;8.674;2024-02-21T00:32:43;17.73;;;5.63;;
21769;SDS011;11046;49.558;8.674;2024-02-21T00:35:44;21.67;;;6.20;;
21769;SDS011;11046;49.558;8.674;2024-02-21T00:38:44;19.87;;;5.80;;
21769;SDS011;11046;49.558;8.674;2024-02-21T00:41:45;16.70;;;5.83;;
21769;SDS011;11046;49.558;8.674;2024-02-21T00:44:45;23.97;;;5.70;;
21769;SDS011;11046;49.558;8.674;2024-02-21T00:47:46;20.07;;;6.27;;
21769;SDS011;11046;49.558;8.674;2024-02-21T00:50:46;18.03;;;5.60;;
21769;SDS011;11046;49.558;8.674;2024-02-21T00:53:47;17.30;;;5.40;;
21769;SDS011;11046;49.558;8.674;2024-02-21T00:56:47;21.37;;;6.00;;
21769;SDS011;11046;49.558;8.674;2024-02-21T00:59:48;15.70;;;5.43;;
21769;SDS011;11046;49.558;8.674;2024-02-21T01:02:49;13.77;;;5.40;;
21769;SDS011;11046;49.558;8.674;2024-02-21T01:05:49;21.23;;;5.73;;
21769;SDS011;11046;49.558;8.674;2024-02-21T01:08:50;20.70;;;6.30;;
21769;SDS011;11046;49.558;8.674;2024-02-21T01:11:50;17.47;;;5.73;;
21769;SDS011;11046;49.558;8.674;2024-02-21T01:14:51;18.40;;;5.23;;
21769;SDS011;11046;49.558;8.674;2024-02-21T01:17:52;14.13;;;5.30;;
21769;SDS011;11046;49.558;8.674;2024-02-21T01:20:54;15.43;;;5.60;;
21769;SDS011;11046;49.558;8.674;2024-02-21T01:23:55;16.70;;;5.60;;
21769;SDS011;11046;49.558;8.674;2024-02-21T01:26:55;22.37;;;6.50;;
21769;SDS011;11046;49.558;8.674;2024-02-21T01:29:56;22.50;;;5.50;;
21769;SDS011;11046;49.558;8.674;2024-02-21T01:32:56;16.83;;;5.07;;
21769;SDS011;11046;49.558;8.674;2024-02-21T01:35:57;18.70;;;5.57;;
21769;SDS011;11046;49.558;8.674;2024-02-21T01:38:57;15.00;;;5.47;;
21769;SDS011;11046;49.558;8.674;2024-02-21T01:41:58;13.60;;;5.03;;
21769;SDS011;11046;49.558;8.674;2024-02-21T01:44:59;17.20;;;5.53;;
21769;SDS011;11046;49.558;8.674;2024-02-21T01:47:59;23.63;;;5.80;;
21769;SDS011;11046;49.558;8.674;2024-02-21T01:51:00;15.70;;;4.93;;
21769;SDS011;11046;49.558;8.674;2024-02-21T01:54:02;18.67;;;5.43;;
21769;SDS011;11046;49.558;8.674;2024-02-21T01:57:03;22.00;;;5.27;;
21769;SDS011;11046;49.558;8.674;2024-02-21T02:00:04;13.90;;;5.10;;
21769;SDS011;11046;49.558;8.674;2024-02-21T02:03:11;19.13;;;5.20;;
21769;SDS011;11046;49.558;8.674;2024-02-21T02:06:18;20.40;;;5.27;;
21769;SDS011;11046;49.558;8.674;2024-02-21T02:09:18;17.13;;;4.70;;
21769;SDS011;11046;49.558;8.674;2024-02-21T02:12:19;21.70;;;5.37;;
21769;SDS011;11046;49.558;8.674;2024-02-21T02:15:19;14.93;;;5.37;;
21769;SDS011;11046;49.558;8.674;2024-02-21T02:18:20;14.37;;;4.80;;
21769;SDS011;11046;49.558;8.674;2024-02-21T02:21:27;12.40;;;4.90;;
21769;SDS011;11046;49.558;8.674;2024-02-21T02:24:32;15.43;;;5.40;;
21769;SDS011;11046;49.558;8.674;2024-02-21T02:27:33;19.50;;;6.53;;
21769;SDS011;11046;49.558;8.674;2024-02-21T02:30:41;16.23;;;5.23;;
21769;SDS011;11046;49.558;8.674;2024-02-21T02:33:44;13.57;;;5.13;;
21769;SDS011;11046;49.558;8.674;2024-02-21T02:36:45;15.23;;;5.70;;
21769;SDS011;11046;49.558;8.674;2024-02-21T02:39:48;15.40;;;5.40;;
21769;SDS011;11046;49.558;8.674;2024-02-21T02:46:05;16.30;;;5.27;;
21769;SDS011;11046;49.558;8.674;2024-02-21T02:49:06;12.37;;;5.10;;
21769;SDS011;11046;49.558;8.674;2024-02-21T02:52:07;18.43;;;5.63;;
21769;SDS011;11046;49.558;8.674;2024-02-21T02:55:08;14.47;;;5.10;;
21769;SDS011;11046;49.558;8.674;2024-02-21T02:58:08;17.07;;;5.60;;
21769;SDS011;11046;49.558;8.674;2024-02-21T03:01:09;18.87;;;6.00;;
21769;SDS011;11046;49.558;8.674;2024-02-21T03:04:09;16.33;;;5.40;;
21769;SDS011;11046;49.558;8.674;2024-02-21T03:07:10;14.00;;;5.37;;
21769;SDS011;11046;49.558;8.674;2024-02-21T03:10:14;19.77;;;5.20;;
21769;SDS011;11046;49.558;8.674;2024-02-21T03:13:16;16.27;;;5.17;;
21769;SDS011;11046;49.558;8.674;2024-02-21T03:16:17;18.37;;;5.00;;
21769;SDS011;11046;49.558;8.674;2024-02-21T03:19:17;17.10;;;4.90;;
21769;SDS011;11046;49.558;8.674;2024-02-21T03:22:18;18.00;;;5.40;;
21769;SDS011;11046;49.558;8.674;2024-02-21T03:25:18;22.97;;;5.30;;
21769;SDS011;11046;49.558;8.674;2024-02-21T03:28:19;19.77;;;6.47;;
21769;SDS011;11046;49.558;8.674;2024-02-21T03:31:20;16.97;;;6.00;;
21769;SDS011;11046;49.558;8.674;2024-02-21T03:34:21;17.03;;;5.27;;
21769;SDS011;11046;49.558;8.674;2024-02-21T03:37:21;16.23;;;5.17;;
21769;SDS011;11046;49.558;8.674;2024-02-21T03:40:22;16.37;;;4.77;;
21769;SDS011;11046;49.558;8.674;2024-02-21T03:43:22;16.80;;;5.60;;
21769;SDS011;11046;49.558;8.674;2024-02-21T03:46:24;14.33;;;5.17;;
21769;SDS011;11046;49.558;8.674;2024-02-21T03:49:25;17.80;;;5.30;;
21769;SDS011;11046;49.558;8.674;2024-02-21T03:52:25;18.10;;;5.10;;
21769;SDS011;11046;49.558;8.674;2024-02-21T03:55:26;10.60;;;5.13;;
21769;SDS011;11046;49.558;8.674;2024-02-21T03:58:27;13.80;;;4.90;;
21769;SDS011;11046;49.558;8.674;2024-02-21T04:01:27;15.83;;;4.90;;
21769;SDS011;11046;49.558;8.674;2024-02-21T04:04:28;18.30;;;5.07;;
21769;SDS011;11046;49.558;8.674;2024-02-21T04:07:29;15.87;;;5.20;;
21769;SDS011;11046;49.558;8.674;2024-02-21T04:10:30;17.40;;;5.77;;
21769;SDS011;11046;49.558;8.674;2024-02-21T04:13:30;13.13;;;5.07;;
21769;SDS011;11046;49.558;8.674;2024-02-21T04:16:31;18.13;;;5.43;;
21769;SDS011;11046;49.558;8.674;2024-02-21T04:19:31;18.10;;;5.47;;
21769;SDS011;11046;49.558;8.674;2024-02-21T04:22:33;18.73;;;5.27;;
21769;SDS011;11046;49.558;8.674;2024-02-21T04:25:34;21.80;;;5.90;;
21769;SDS011;11046;49.558;8.674;2024-02-21T04:28:35;18.13;;;5.20;;
21769;SDS011;11046;49.558;8.674;2024-02-21T04:31:36;18.13;;;5.20;;
21769;SDS011;11046;49.558;8.674;2024-02-21T04:34:37;21.63;;;5.53;;
21769;SDS011;11046;49.558;8.674;2024-02-21T04:37:37;18.60;;;5.63;;
21769;SDS011;11046;49.558;8.674;2024-02-21T04:40:38;14.87;;;5.10;;
21769;SDS011;11046;49.558;8.674;2024-02-21T04:43:39;15.73;;;5.57;;
21769;SDS011;11046;49.558;8.674;2024-02-21T04:46:41;16.53;;;5.80;;
21769;SDS011;11046;49.558;8.674;2024-02-21T04:49:43;17.20;;;5.43;;
21769;SDS011;11046;49.558;8.674;2024-02-21T04:52:43;21.83;;;5.53;;
21769;SDS011;11046;49.558;8.674;2024-02-21T04:55:44;15.23;;;5.60;;
21769;SDS011;11046;49.558;8.674;2024-02-21T04:58:46;16.93;;;4.93;;
21769;SDS011;11046;49.558;8.674;2024-02-21T05:01:46;15.07;;;5.33;;
21769;SDS011;11046;49.558;8.674;2024-02-21T05:04:47;16.60;;;4.77;;
21769;SDS011;11046;49.558;8.674;2024-02-21T05:07:47;14.80;;;5.10;;
21769;SDS011;11046;49.558;8.674;2024-02-21T05:10:48;15.93;;;4.67;;
21769;SDS011;11046;49.558;8.674;2024-02-21T05:13:48;16.73;;;5.20;;
21769;SDS011;11046;49.558;8.674;2024-02-21T05:16:49;19.53;;;5.40;;
21769;SDS011;11046;49.558;8.674;2024-02-21T05:19:50;14.67;;;4.87;;
21769;SDS011;11046;49.558;8.674;2024-02-21T05:22:51;14.47;;;4.93;;
21769;SDS011;11046;49.558;8.674;2024-02-21T05:25:51;17.27;;;6.47;;
21769;SDS011;11046;49.558;8.674;2024-02-21T05:28:52;16.83;;;5.17;;
21769;SDS011;11046;49.558;8.674;2024-02-21T05:34:53;15.67;;;5.23;;
21769;SDS011;11046;49.558;8.674;2024-02-21T05:37:54;13.77;;;5.10;;
21769;SDS011;11046;49.558;8.674;2024-02-21T05:40:55;17.97;;;4.73;;
21769;SDS011;11046;49.558;8.674;2024-02-21T05:43:56;14.47;;;5.00;;
21769;SDS011;11046;49.558;8.674;2024-02-21T05:46:59;12.77;;;4.77;;
21769;SDS011;11046;49.558;8.674;2024-02-21T05:50:00;17.50;;;5.63;;
21769;SDS011;11046;49.558;8.674;2024-02-21T05:53:09;17.40;;;4.80;;
21769;SDS011;11046;49.558;8.674;2024-02-21T05:56:17;17.20;;;5.20;;
21769;SDS011;11046;49.558;8.674;2024-02-21T05:59:18;13.60;;;4.93;;
21769;SDS011;11046;49.558;8.674;2024-02-21T06:05:36;15.47;;;4.73;;
21769;SDS011;11046;49.558;8.674;2024-02-21T06:08:39;15.43;;;5.17;;
21769;SDS011;11046;49.558;8.674;2024-02-21T06:11:40;13.13;;;5.10;;
21769;SDS011;11046;49.558;8.674;2024-02-21T06:14:40;17.50;;;5.13;;
21769;SDS011;11046;49.558;8.674;2024-02-21T06:17:41;15.77;;;5.80;;
21769;SDS011;11046;49.558;8.674;2024-02-21T06:20:41;15.30;;;5.30;;
21769;SDS011;11046;49.558;8.674;2024-02-21T06:23:43;18.10;;;5.67;;
21769;SDS011;11046;49.558;8.674;2024-02-21T06:26:43;17.80;;;5.50;;
21769;SDS011;11046;49.558;8.674;2024-02-21T06:29:44;13.17;;;5.50;;
21769;SDS011;11046;49.558;8.674;2024-02-21T06:32:45;18.13;;;5.10;;
21769;SDS011;11046;49.558;8.674;2024-02-21T06:35:46;19.03;;;5.20;;
21769;SDS011;11046;49.558;8.674;2024-02-21T06:38:47;16.57;;;5.23;;
21769;SDS011;11046;49.558;8.674;2024-02-21T06:41:48;15.60;;;5.13;;
21769;SDS011;11046;49.558;8.674;2024-02-21T06:44:50;15.33;;;5.23;;
21769;SDS011;11046;49.558;8.674;2024-02-21T06:47:51;23.27;;;5.70;;
21769;SDS011;11046;49.558;8.674;2024-02-21T06:50:52;14.40;;;5.50;;
21769;SDS011;11046;49.558;8.674;2024-02-21T06:53:53;13.67;;;5.17;;
21769;SDS011;11046;49.558;8.674;2024-02-21T06:56:54;17.73;;;5.17;;
21769;SDS011;11046;49.558;8.674;2024-02-21T07:00:03;13.67;;;4.77;;
21769;SDS011;11046;49.558;8.674;2024-02-21T07:03:08;14.47;;;5.30;;
21769;SDS011;11046;49.558;8.674;2024-02-21T07:06:11;15.30;;;5.07;;
21769;SDS011;11046;49.558;8.674;2024-02-21T07:09:12;19.47;;;5.30;;
21769;SDS011;11046;49.558;8.674;2024-02-21T07:12:13;17.70;;;5.70;;
21769;SDS011;11046;49.558;8.674;2024-02-21T07:15:14;15.10;;;5.40;;
21769;SDS011;11046;49.558;8.674;2024-02-21T07:18:16;18.03;;;5.30;;
21769;SDS011;11046;49.558;8.674;2024-02-21T07:21:16;16.60;;;5.73;;
21769;SDS011;11046;49.558;8.674;2024-02-21T07:24:17;20.57;;;6.57;;
21769;SDS011;11046;49.558;8.674;2024-02-21T07:27:17;20.83;;;6.30;;
21769;SDS011;11046;49.558;8.674;2024-02-21T07:30:18;14.03;;;5.63;;
21769;SDS011;11046;49.558;8.674;2024-02-21T07:33:19;17.20;;;6.00;;
21769;SDS011;11046;49.558;8.674;2024-02-21T07:36:28;21.40;;;5.37;;
21769;SDS011;11046;49.558;8.674;2024-02-21T07:39:30;20.50;;;5.17;;
21769;SDS011;11046;49.558;8.674;2024-02-21T07:42:31;19.23;;;5.60;;
21769;SDS011;11046;49.558;8.674;2024-02-21T07:45:31;19.27;;;6.37;;
21769;SDS011;11046;49.558;8.674;2024-02-21T07:48:32;20.70;;;5.10;;
21769;SDS011;11046;49.558;8.674;2024-02-21T07:51:32;15.20;;;5.07;;
21769;SDS011;11046;49.558;8.674;2024-02-21T07:54:33;15.63;;;5.23;;
21769;SDS011;11046;49.558;8.674;2024-02-21T07:57:33;15.60;;;5.07;;
21769;SDS011;11046;49.558;8.674;2024-02-21T08:00:34;15.77;;;5.57;;
21769;SDS011;11046;49.558;8.674;2024-02-21T08:03:34;15.73;;;5.53;;
21769;SDS011;11046;49.558;8.674;2024-02-21T08:06:35;16.03;;;5.20;;
21769;SDS011;11046;49.558;8.674;2024-02-21T08:09:35;18.27;;;5.37;;
21769;SDS011;11046;49.558;8.674;2024-02-21T08:12:38;15.70;;;6.33;;
21769;SDS011;11046;49.558;8.674;2024-02-21T08:15:38;19.17;;;5.80;;
21769;SDS011;11046;49.558;8.674;2024-02-21T08:18:43;14.27;;;5.10;;
21769;SDS011;11046;49.558;8.674;2024-02-21T08:21:44;15.57;;;5.53;;
21769;SDS011;11046;49.558;8.674;2024-02-21T08:24:48;14.77;;;5.67;;
21769;SDS011;11046;49.558;8.674;2024-02-21T08:27:48;17.00;;;5.47;;
21769;SDS011;11046;49.558;8.674;2024-02-21T08:30:49;15.73;;;5.53;;
21769;SDS011;11046;49.558;8.674;2024-02-21T08:33:49;11.63;;;5.47;;
21769;SDS011;11046;49.558;8.674;2024-02-21T08:36:50;17.67;;;5.73;;
21769;SDS011;11046;49.558;8.674;2024-02-21T08:39:51;16.77;;;5.27;;
21769;SDS011;11046;49.558;8.674;2024-02-21T08:42:51;18.67;;;4.73;;
21769;SDS011;11046;49.558;8.674;2024-02-21T08:45:53;11.57;;;5.23;;
21769;SDS011;11046;49.558;8.674;2024-02-21T08:48:54;17.80;;;4.83;;
21769;SDS011;11046;49.558;8.674;2024-02-21T08:51:55;14.43;;;4.80;;
21769;SDS011;11046;49.558;8.674;2024-02-21T08:54:55;13.87;;;4.93;;
21769;SDS011;11046;49.558;8.674;2024-02-21T08:57:56;12.47;;;4.67;;
21769;SDS011;11046;49.558;8.674;2024-02-21T09:00:57;13.20;;;4.73;;
21769;SDS011;11046;49.558;8.674;2024-02-21T09:03:57;12.53;;;5.10;;
21769;SDS011;11046;49.558;8.674;2024-02-21T09:06:58;13.60;;;4.50;;
21769;SDS011;11046;49.558;8.674;2024-02-21T09:09:59;15.23;;;4.60;;
21769;SDS011;11046;49.558;8.674;2024-02-21T09:13:00;9.90;;;4.20;;
21769;SDS011;11046;49.558;8.674;2024-02-21T09:16:03;18.33;;;4.63;;
21769;SDS011;11046;49.558;8.674;2024-02-21T09:19:04;13.17;;;4.77;;
21769;SDS011;11046;49.558;8.674;2024-02-21T09:22:05;13.23;;;4.97;;
21769;SDS011;11046;49.558;8.674;2024-02-21T09:25:06;15.37;;;4.33;;
21769;SDS011;11046;49.558;8.674;2024-02-21T09:28:06;13.13;;;4.23;;
21769;SDS011;11046;49.558;8.674;2024-02-21T09:31:07;12.70;;;4.40;;
21769;SDS011;11046;49.558;8.674;2024-02-21T09:34:08;12.83;;;5.07;;
21769;SDS011;11046;49.558;8.674;2024-02-21T09:37:08;15.67;;;4.17;;
21769;SDS011;11046;49.558;8.674;2024-02-21T09:40:09;14.90;;;4.10;;
21769;SDS011;11046;49.558;8.674;2024-02-21T09:43:10;11.53;;;4.50;;
21769;SDS011;11046;49.558;8.674;2024-02-21T09:46:18;14.30;;;3.83;;
21769;SDS011;11046;49.558;8.674;2024-02-21T09:49:26;16.57;;;4.63;;
21769;SDS011;11046;49.558;8.674;2024-02-21T09:52:34;11.17;;;3.83;;
21769;SDS011;11046;49.558;8.674;2024-02-21T09:55:36;9.40;;;3.80;;
21769;SDS011;11046;49.558;8.674;2024-02-21T09:58:40;16.23;;;4.53;;
21769;SDS011;11046;49.558;8.674;2024-02-21T10:01:44;14.07;;;4.00;;
21769;SDS011;11046;49.558;8.674;2024-02-21T10:04:46;13.02;;;4.60;;
21769;SDS011;11046;49.558;8.674;2024-02-21T10:07:48;16.47;;;4.77;;
21769;SDS011;11046;49.558;8.674;2024-02-21T10:10:49;9.13;;;4.17;;
21769;SDS011;11046;49.558;8.674;2024-02-21T10:14:06;13.63;;;4.53;;
21769;SDS011;11046;49.558;8.674;2024-02-21T10:17:07;13.47;;;4.20;;
21769;SDS011;11046;49.558;8.674;2024-02-21T10:20:09;11.50;;;4.70;;
21769;SDS011;11046;49.558;8.674;2024-02-21T10:23:11;12.27;;;4.45;;
21769;SDS011;11046;49.558;8.674;2024-02-21T10:26:12;10.50;;;4.50;;
21769;SDS011;11046;49.558;8.674;2024-02-21T10:29:14;13.77;;;4.07;;
21769;SDS011;11046;49.558;8.674;2024-02-21T10:32:18;10.37;;;4.50;;
21769;SDS011;11046;49.558;8.674;2024-02-21T10:35:25;12.60;;;3.95;;
21769;SDS011;11046;49.558;8.674;2024-02-21T10:38:28;12.23;;;4.33;;
21769;SDS011;11046;49.558;8.674;2024-02-21T10:41:28;10.68;;;3.88;;
21769;SDS011;11046;49.558;8.674;2024-02-21T10:44:32;10.82;;;3.90;;
21769;SDS011;11046;49.558;8.674;2024-02-21T10:47:36;11.52;;;4.40;;
21769;SDS011;11046;49.558;8.674;2024-02-21T10:57:34;12.90;;;3.90;;
21769;SDS011;11046;49.558;8.674;2024-02-21T11:00:37;9.35;;;3.50;;
21769;SDS011;11046;49.558;8.674;2024-02-21T11:03:38;14.02;;;3.97;;
21769;SDS011;11046;49.558;8.674;2024-02-21T11:06:42;11.23;;;3.67;;
21769;SDS011;11046;49.558;8.674;2024-02-21T11:09:50;13.45;;;3.83;;
21769;SDS011;11046;49.558;8.674;2024-02-21T11:13:07;14.15;;;4.07;;
21769;SDS011;11046;49.558;8.674;2024-02-21T11:16:11;14.73;;;4.75;;
21769;SDS011;11046;49.558;8.674;2024-02-21T11:19:22;12.10;;;4.18;;
21769;SDS011;11046;49.558;8.674;2024-02-21T11:22:28;14.68;;;4.20;;
21769;SDS011;11046;49.558;8.674;2024-02-21T11:25:31;9.68;;;3.70;;
21769;SDS011;11046;49.558;8.674;2024-02-21T11:28:33;9.27;;;3.33;;
21769;SDS011;11046;49.558;8.674;2024-02-21T11:31:39;9.00;;;3.80;;
21769;SDS011;11046;49.558;8.674;2024-02-21T11:34:56;13.45;;;3.95;;
21769;SDS011;11046;49.558;8.674;2024-02-21T11:38:08;14.90;;;3.83;;
21769;SDS011;11046;49.558;8.674;2024-02-21T11:41:10;11.07;;;3.40;;
21769;SDS011;11046;49.558;8.674;2024-02-21T11:44:10;14.02;;;3.80;;
21769;SDS011;11046;49.558;8.674;2024-02-21T11:47:11;10.50;;;3.15;;
21769;SDS011;11046;49.558;8.674;2024-02-21T11:50:12;10.60;;;3.20;;
21769;SDS011;11046;49.558;8.674;2024-02-21T11:53:12;9.35;;;3.40;;
21769;SDS011;11046;49.558;8.674;2024-02-21T11:56:13;12.60;;;3.47;;
21769;SDS011;11046;49.558;8.674;2024-02-21T11:59:14;9.85;;;3.80;;
21769;SDS011;11046;49.558;8.674;2024-02-21T12:02:15;15.30;;;3.40;;
21769;SDS011;11046;49.558;8.674;2024-02-21T12:05:15;11.68;;;3.20;;
21769;SDS011;11046;49.558;8.674;2024-02-21T12:08:18;8.57;;;2.90;;
21769;SDS011;11046;49.558;8.674;2024-02-21T12:11:23;9.40;;;3.75;;
21769;SDS011;11046;49.558;8.674;2024-02-21T12:14:24;12.18;;;3.30;;
21769;SDS011;11046;49.558;8.674;2024-02-21T12:17:25;9.98;;;3.70;;
21769;SDS011;11046;49.558;8.674;2024-02-21T12:20:26;10.30;;;3.38;;
21769;SDS011;11046;49.558;8.674;2024-02-21T12:23:27;9.23;;;3.35;;
21769;SDS011;11046;49.558;8.674;2024-02-21T12:26:27;9.43;;;3.30;;
21769;SDS011;11046;49.558;8.674;2024-02-21T12:29:28;10.95;;;3.22;;
21769;SDS011;11046;49.558;8.674;2024-02-21T12:32:30;10.75;;;3.50;;
21769;SDS011;11046;49.558;8.674;2024-02-21T12:35:30;10.32;;;3.90;;
21769;SDS011;11046;49.558;8.674;2024-02-21T12:38:33;14.10;;;3.58;;
21769;SDS011;11046;49.558;8.674;2024-02-21T12:41:34;11.57;;;3.50;;
21769;SDS011;11046;49.558;8.674;2024-02-21T12:44:38;6.45;;;2.60;;
21769;SDS011;11046;49.558;8.674;2024-02-21T12:47:38;7.95;;;3.05;;
21769;SDS011;11046;49.558;8.674;2024-02-21T12:50:41;9.93;;;2.78;;
21769;SDS011;11046;49.558;8.674;2024-02-21T12:53:49;11.15;;;2.75;;
21769;SDS011;11046;49.558;8.674;2024-02-21T12:56:50;11.88;;;3.10;;
21769;SDS011;11046;49.558;8.674;2024-02-21T12:59:51;8.40;;;3.40;;
21769;SDS011;11046;49.558;8.674;2024-02-21T13:02:51;9.90;;;3.00;;
21769;SDS011;11046;49.558;8.674;2024-02-21T13:05:52;6.97;;;2.83;;
21769;SDS011;11046;49.558;8.674;2024-02-21T13:08:53;8.10;;;3.22;;
21769;SDS011;11046;49.558;8.674;2024-02-21T13:11:53;9.73;;;4.00;;
21769;SDS011;11046;49.558;8.674;2024-02-21T13:14:54;9.05;;;3.30;;
21769;SDS011;11046;49.558;8.674;2024-02-21T13:17:57;6.93;;;2.70;;
21769;SDS011;11046;49.558;8.674;2024-02-21T13:20:58;7.68;;;3.17;;
21769;SDS011;11046;49.558;8.674;2024-02-21T13:23:59;9.20;;;2.97;;
21769;SDS011;11046;49.558;8.674;2024-02-21T13:26:59;13.25;;;4.10;;
21769;SDS011;11046;49.558;8.674;2024-02-21T13:30:00;11.35;;;3.40;;
21769;SDS011;11046;49.558;8.674;2024-02-21T13:33:06;9.38;;;3.35;;
21769;SDS011;11046;49.558;8.674;2024-02-21T13:36:07;7.03;;;2.88;;
21769;SDS011;11046;49.558;8.674;2024-02-21T13:39:08;10.88;;;3.05;;
21769;SDS011;11046;49.558;8.674;2024-02-21T13:42:08;13.05;;;3.15;;
21769;SDS011;11046;49.558;8.674;2024-02-21T13:45:09;9.50;;;2.83;;
21769;SDS011;11046;49.558;8.674;2024-02-21T13:48:10;5.93;;;2.50;;
21769;SDS011;11046;49.558;8.674;2024-02-21T13:51:12;10.02;;;2.70;;
21769;SDS011;11046;49.558;8.674;2024-02-21T13:54:12;8.02;;;2.78;;
21769;SDS011;11046;49.558;8.674;2024-02-21T13:57:17;7.35;;;3.45;;
21769;SDS011;11046;49.558;8.674;2024-02-21T14:00:17;10.52;;;2.75;;
21769;SDS011;11046;49.558;8.674;2024-02-21T14:03:19;8.65;;;2.95;;
21769;SDS011;11046;49.558;8.674;2024-02-21T14:06:20;8.98;;;2.30;;
21769;SDS011;11046;49.558;8.674;2024-02-21T14:09:21;11.80;;;3.08;;
21769;SDS011;11046;49.558;8.674;2024-02-21T14:12:21;8.20;;;2.63;;
21769;SDS011;11046;49.558;8.674;2024-02-21T14:15:22;10.98;;;2.78;;
21769;SDS011;11046;49.558;8.674;2024-02-21T14:18:22;9.02;;;2.70;;
21769;SDS011;11046;49.558;8.674;2024-02-21T14:21:23;4.88;;;2.22;;
21769;SDS011;11046;49.558;8.674;2024-02-21T14:24:24;8.52;;;2.45;;
21769;SDS011;11046;49.558;8.674;2024-02-21T14:27:24;11.35;;;2.72;;
21769;SDS011;11046;49.558;8.674;2024-02-21T14:30:25;6.57;;;2.35;;
21769;SDS011;11046;49.558;8.674;2024-02-21T14:33:29;10.90;;;2.88;;
21769;SDS011;11046;49.558;8.674;2024-02-21T14:36:31;8.02;;;2.67;;
21769;SDS011;11046;49.558;8.674;2024-02-21T14:39:32;5.70;;;2.40;;
21769;SDS011;11046;49.558;8.674;2024-02-21T14:42:34;9.30;;;2.58;;
21769;SDS011;11046;49.558;8.674;2024-02-21T14:45:35;7.50;;;2.60;;
21769;SDS011;11046;49.558;8.674;2024-02-21T14:48:36;7.18;;;2.90;;
21769;SDS011;11046;49.558;8.674;2024-02-21T14:51:36;6.70;;;2.40;;
21769;SDS011;11046;49.558;8.674;2024-02-21T14:54:37;9.02;;;2.40;;
21769;SDS011;11046;49.558;8.674;2024-02-21T14:57:38;11.45;;;2.80;;
21769;SDS011;11046;49.558;8.674;2024-02-21T15:00:40;20.58;;;3.38;;
21769;SDS011;11046;49.558;8.674;2024-02-21T15:03:41;6.30;;;2.67;;
21769;SDS011;11046;49.558;8.674;2024-02-21T15:06:42;10.90;;;2.35;;
21769;SDS011;11046;49.558;8.674;2024-02-21T15:09:45;11.35;;;3.88;;
21769;SDS011;11046;49.558;8.674;2024-02-21T15:12:46;12.48;;;2.80;;
21769;SDS011;11046;49.558;8.674;2024-02-21T15:15:47;7.63;;;2.65;;
21769;SDS011;11046;49.558;8.674;2024-02-21T15:18:48;6.10;;;2.28;;
21769;SDS011;11046;49.558;8.674;2024-02-21T15:21:48;7.20;;;2.40;;
21769;SDS011;11046;49.558;8.674;2024-02-21T15:24:49;7.85;;;2.20;;
21769;SDS011;11046;49.558;8.674;2024-02-21T15:27:50;7.32;;;2.58;;
21769;SDS011;11046;49.558;8.674;2024-02-21T15:30:50;4.18;;;2.10;;
21769;SDS011;11046;49.558;8.674;2024-02-21T15:33:51;4.30;;;1.90;;
21769;SDS011;11046;49.558;8.674;2024-02-21T15:36:52;9.30;;;2.00;;
21769;SDS011;11046;49.558;8.674;2024-02-21T15:39:53;6.87;;;2.20;;
21769;SDS011;11046;49.558;8.674;2024-02-21T15:42:53;7.25;;;1.80;;
21769;SDS011;11046;49.558;8.674;2024-02-21T15:45:54;4.88;;;2.00;;
21769;SDS011;11046;49.558;8.674;2024-02-21T15:48:55;10.35;;;2.03;;
21769;SDS011;11046;49.558;8.674;2024-02-21T15:51:55;4.25;;;1.98;;
21769;SDS011;11046;49.558;8.674;2024-02-21T15:54:56;6.57;;;2.57;;
21769;SDS011;11046;49.558;8.674;2024-02-21T15:57:57;7.90;;;2.53;;
21769;SDS011;11046;49.558;8.674;2024-02-21T16:00:58;5.70;;;2.60;;
21769;SDS011;11046;49.558;8.674;2024-02-21T16:03:59;5.20;;;2.47;;
21769;SDS011;11046;49.558;8.674;2024-02-21T16:07:00;10.50;;;2.33;;
21769;SDS011;11046;49.558;8.674;2024-02-21T16:10:00;9.30;;;2.77;;
21769;SDS011;11046;49.558;8.674;2024-02-21T16:13:01;11.95;;;3.10;;
21769;SDS011;11046;49.558;8.674;2024-02-21T16:16:02;9.48;;;2.63;;
21769;SDS011;11046;49.558;8.674;2024-02-21T16:19:03;8.47;;;2.60;;
21769;SDS011;11046;49.558;8.674;2024-02-21T16:22:05;13.03;;;2.60;;
21769;SDS011;11046;49.558;8.674;2024-02-21T16:25:05;6.70;;;2.60;;
21769;SDS011;11046;49.558;8.674;2024-02-21T16:28:06;10.97;;;3.87;;
21769;SDS011;11046;49.558;8.674;2024-02-21T16:31:10;12.07;;;4.60;;
21769;SDS011;11046;49.558;8.674;2024-02-21T16:34:11;10.90;;;4.00;;
21769;SDS011;11046;49.558;8.674;2024-02-21T16:37:12;10.53;;;3.83;;
21769;SDS011;11046;49.558;8.674;2024-02-21T16:40:14;9.73;;;3.50;;
21769;SDS011;11046;49.558;8.674;2024-02-21T16:43:14;8.97;;;3.63;;
21769;SDS011;11046;49.558;8.674;2024-02-21T16:46:15;11.47;;;3.87;;
21769;SDS011;11046;49.558;8.674;2024-02-21T16:49:15;10.90;;;3.33;;
21769;SDS011;11046;49.558;8.674;2024-02-21T16:52:17;9.75;;;3.35;;
21769;SDS011;11046;49.558;8.674;2024-02-21T16:55:18;6.17;;;3.27;;
21769;SDS011;11046;49.558;8.674;2024-02-21T16:58:19;9.10;;;3.03;;
21769;SDS011;11046;49.558;8.674;2024-02-21T17:01:20;8.07;;;3.87;;
21769;SDS011;11046;49.558;8.674;2024-02-21T17:04:20;9.67;;;3.00;;
21769;SDS011;11046;49.558;8.674;2024-02-21T17:07:21;10.70;;;4.17;;
21769;SDS011;11046;49.558;8.674;2024-02-21T17:10:22;11.30;;;3.80;;
21769;SDS011;11046;49.558;8.674;2024-02-21T17:13:23;10.17;;;3.97;;
21769;SDS011;11046;49.558;8.674;2024-02-21T17:16:24;14.70;;;5.20;;
21769;SDS011;11046;49.558;8.674;2024-02-21T17:19:24;11.13;;;4.60;;
21769;SDS011;11046;49.558;8.674;2024-02-21T17:22:25;12.20;;;4.60;;
21769;SDS011;11046;49.558;8.674;2024-02-21T17:25:25;9.23;;;3.97;;
21769;SDS011;11046;49.558;8.674;2024-02-21T17:28:26;6.47;;;3.23;;
21769;SDS011;11046;49.558;8.674;2024-02-21T17:31:28;9.97;;;3.47;;
21769;SDS011;11046;49.558;8.674;2024-02-21T17:34:28;8.87;;;3.80;;
21769;SDS011;11046;49.558;8.674;2024-02-21T17:37:29;10.20;;;3.90;;
21769;SDS011;11046;49.558;8.674;2024-02-21T17:40:36;9.80;;;4.10;;
21769;SDS011;11046;49.558;8.674;2024-02-21T17:43:37;9.70;;;3.80;;
21769;SDS011;11046;49.558;8.674;2024-02-21T17:46:41;9.97;;;4.17;;
21769;SDS011;11046;49.558;8.674;2024-02-21T17:49:44;10.30;;;4.70;;
21769;SDS011;11046;49.558;8.674;2024-02-21T17:52:46;15.87;;;4.53;;
21769;SDS011;11046;49.558;8.674;2024-02-21T17:55:47;15.97;;;5.23;;
21769;SDS011;11046;49.558;8.674;2024-02-21T17:58:47;11.57;;;3.70;;
21769;SDS011;11046;49.558;8.674;2024-02-21T18:01:48;8.40;;;3.97;;
21769;SDS011;11046;49.558;8.674;2024-02-21T18:04:49;8.03;;;4.17;;
21769;SDS011;11046;49.558;8.674;2024-02-21T18:07:49;16.60;;;8.80;;
21769;SDS011;11046;49.558;8.674;2024-02-21T18:10:50;12.80;;;5.93;;
21769;SDS011;11046;49.558;8.674;2024-02-21T18:13:51;14.33;;;5.57;;
21769;SDS011;11046;49.558;8.674;2024-02-21T18:16:54;10.77;;;6.00;;
21769;SDS011;11046;49.558;8.674;2024-02-21T18:19:55;14.40;;;6.10;;